Time;durP1;ratioP1;P1;durP2;ratioP2;P2;SDS_P1;SDS_P2;PMS_P1;PMS_P2;Temp;Humidity;BMP_temperature;BMP_pressure;BME280_temperature;BME280_humidity;BME280_pressure;Samples;Min_cycle;Max_cycle;Signal;HPM_P1;HPM_P2
2022/10/17 00:00:48;;;;;;;25.95;21.52;;;;;;;17.20;100.00;100751.91;5031170;28;20036;-78
2022/10/17 00:03:14;;;;;;;30.85;21.60;;;;;;;17.19;100.00;100760.91;5030025;28;20045;-77
2022/10/17 00:05:42;;;;;;;27.70;21.63;;;;;;;17.20;100.00;100762.56;5029188;28;20474;-76
2022/10/17 00:08:08;;;;;;;27.75;22.15;;;;;;;17.19;100.00;100755.59;5029538;28;20124;-76
2022/10/17 00:10:34;;;;;;;27.70;20.88;;;;;;;17.20;100.00;100767.91;5028475;28;20425;-77
2022/10/17 00:13:00;;;;;;;27.00;21.70;;;;;;;17.20;100.00;100763.41;5032522;28;20044;-77
2022/10/17 00:15:25;;;;;;;25.50;21.33;;;;;;;17.22;100.00;100770.41;5027976;28;20064;-77
2022/10/17 00:17:51;;;;;;;26.63;21.15;;;;;;;17.18;100.00;100769.91;5030035;28;20107;-77
2022/10/17 00:20:16;;;;;;;27.23;22.10;;;;;;;17.17;100.00;100778.91;5027787;28;20037;-76
2022/10/17 00:22:42;;;;;;;27.10;20.85;;;;;;;17.14;100.00;100776.56;5029154;28;20044;-78
2022/10/17 00:25:08;;;;;;;32.13;22.23;;;;;;;17.10;100.00;100783.16;5029110;28;20049;-77
2022/10/17 00:27:37;;;;;;;28.65;21.35;;;;;;;17.13;100.00;100785.53;5026392;28;20401;-77
2022/10/17 00:30:05;;;;;;;24.17;21.50;;;;;;;17.12;100.00;100786.53;5029099;28;20190;-78
2022/10/17 00:32:30;;;;;;;28.05;21.65;;;;;;;17.14;100.00;100795.22;5030278;28;20108;-77
2022/10/17 00:34:57;;;;;;;27.90;21.73;;;;;;;17.13;100.00;100793.53;5031168;28;20571;-76
2022/10/17 00:37:23;;;;;;;32.88;21.98;;;;;;;17.16;100.00;100795.88;5023819;28;20040;-78
2022/10/17 00:39:49;;;;;;;30.00;22.38;;;;;;;17.19;100.00;100792.94;5027258;28;20124;-77
2022/10/17 00:42:14;;;;;;;31.00;22.83;;;;;;;17.14;100.00;100800.56;5027933;28;20035;-78
2022/10/17 00:44:40;;;;;;;31.60;23.00;;;;;;;16.92;100.00;100807.19;5025932;28;20036;-77
2022/10/17 00:47:12;;;;;;;33.35;24.50;;;;;;;16.65;100.00;100800.13;5027591;28;20037;-77
2022/10/17 00:49:39;;;;;;;37.25;24.27;;;;;;;16.54;100.00;100797.66;5030366;28;20063;-78
2022/10/17 00:52:08;;;;;;;32.38;23.30;;;;;;;16.51;100.00;100791.75;5030883;28;20032;-76
2022/10/17 00:54:38;;;;;;;31.85;23.70;;;;;;;16.47;100.00;100791.25;5028839;28;20044;-77
2022/10/17 00:57:04;;;;;;;31.15;23.23;;;;;;;16.60;100.00;100797.06;5025709;28;20030;-77
2022/10/17 00:59:32;;;;;;;32.92;24.55;;;;;;;16.60;100.00;100794.41;5028550;28;20372;-78
2022/10/17 01:02:07;;;;;;;35.00;23.63;;;;;;;16.62;100.00;100795.06;5028738;28;20025;-78
2022/10/17 01:04:32;;;;;;;35.75;24.42;;;;;;;16.62;100.00;100795.06;5028323;28;20065;-77
2022/10/17 01:06:58;;;;;;;36.40;24.38;;;;;;;16.63;100.00;100794.09;5026029;28;20116;-78
2022/10/17 01:09:25;;;;;;;39.55;25.65;;;;;;;16.64;100.00;100793.09;5032450;28;20034;-77
2022/10/17 01:11:53;;;;;;;32.78;26.23;;;;;;;16.62;100.00;100789.75;5024498;28;20028;-78
2022/10/17 01:14:24;;;;;;;34.63;25.83;;;;;;;16.66;100.00;100791.13;5027741;28;20056;-76
2022/10/17 01:17:05;;;;;;;38.45;25.80;;;;;;;16.69;100.00;100789.97;5026771;28;20091;-78
2022/10/17 01:20:13;;;;;;;31.85;24.95;;;;;;;16.74;100.00;100793.03;5028004;28;20028;-77
2022/10/17 01:22:51;;;;;;;34.38;25.25;;;;;;;16.77;100.00;100792.72;5028528;28;20038;-78
2022/10/17 01:25:38;;;;;;;27.98;23.05;;;;;;;16.78;100.00;100791.75;5008244;28;20037;-77
2022/10/17 01:28:35;;;;;;;28.48;23.02;;;;;;;16.77;100.00;100788.25;5026654;28;20029;-77
2022/10/17 01:31:22;;;;;;;31.13;23.35;;;;;;;16.73;100.00;100792.19;5042713;28;20331;-77
2022/10/17 01:34:20;;;;;;;33.22;24.55;;;;;;;16.76;100.00;100799.88;5031817;28;20033;-78
2022/10/17 01:37:07;;;;;;;32.33;24.02;;;;;;;16.79;100.00;100796.91;5025591;28;20120;-78
2022/10/17 01:39:51;;;;;;;35.67;27.40;;;;;;;16.83;100.00;100800.13;5029533;28;20041;-78
2022/10/17 01:42:45;;;;;;;36.90;27.20;;;;;;;16.83;100.00;100801.94;5023234;28;20037;-76
2022/10/17 01:45:20;;;;;;;33.97;26.67;;;;;;;16.85;100.00;100805.31;5028364;28;20042;-77
2022/10/17 01:47:49;;;;;;;30.23;25.30;;;;;;;16.79;100.00;100802.22;5025425;28;20056;-77
2022/10/17 01:50:21;;;;;;;31.52;24.98;;;;;;;16.73;100.00;100802.84;5023747;28;20038;-78
2022/10/17 01:52:54;;;;;;;39.50;27.90;;;;;;;16.60;100.00;100804.22;5028634;28;20124;-77
2022/10/17 01:55:36;;;;;;;36.15;27.48;;;;;;;16.48;100.00;100803.56;5022358;28;20053;-78
2022/10/17 01:58:08;;;;;;;41.28;28.75;;;;;;;16.44;100.00;100796.84;5025507;28;20025;-78
2022/10/17 02:00:36;;;;;;;37.70;28.65;;;;;;;16.46;100.00;100797.56;5025879;28;20030;-78
2022/10/17 02:03:08;;;;;;;44.05;31.17;;;;;;;16.36;100.00;100788.78;5029190;28;20473;-78
2022/10/17 02:05:39;;;;;;;42.75;31.13;;;;;;;16.45;100.00;100793.19;5025728;28;20116;-78
2022/10/17 02:08:05;;;;;;;40.58;30.58;;;;;;;16.54;100.00;100792.31;5025148;28;20305;-78
2022/10/17 02:10:37;;;;;;;42.30;30.40;;;;;;;16.57;100.00;100792.00;5023682;28;20022;-78
2022/10/17 02:13:16;;;;;;;41.88;30.40;;;;;;;16.60;100.00;100781.09;5023059;28;20030;-77
2022/10/17 02:15:58;;;;;;;45.72;30.55;;;;;;;16.64;100.00;100777.13;5026876;28;20052;-78
2022/10/17 02:19:02;;;;;;;43.35;31.33;;;;;;;16.64;100.00;100776.28;5029728;28;20100;-76
2022/10/17 02:21:41;;;;;;;44.97;32.78;;;;;;;16.69;100.00;100780.16;5026542;28;20124;-77
2022/10/17 02:24:13;;;;;;;41.33;31.73;;;;;;;16.71;100.00;100772.88;5023211;28;20108;-78
2022/10/17 02:26:54;;;;;;;42.75;30.77;;;;;;;16.70;100.00;100784.50;5027287;28;20032;-77
2022/10/17 02:29:36;;;;;;;42.40;29.52;;;;;;;16.77;100.00;100785.56;5021549;28;20061;-78
2022/10/17 02:32:12;;;;;;;44.47;32.38;;;;;;;16.75;100.00;100795.53;5029569;28;20551;-77
2022/10/17 02:34:48;;;;;;;45.13;30.75;;;;;;;16.70;100.00;100789.84;5024675;28;20091;-77
2022/10/17 02:37:18;;;;;;;37.88;29.17;;;;;;;16.65;100.00;100789.47;5024386;28;20124;-76
2022/10/17 02:39:44;;;;;;;38.83;30.15;;;;;;;16.64;100.00;100787.78;5022212;28;20477;-78
2022/10/17 02:42:13;;;;;;;38.97;31.20;;;;;;;16.65;100.00;100786.78;5007890;28;20037;-77
2022/10/17 02:44:44;;;;;;;41.95;31.90;;;;;;;16.57;100.00;100791.16;5023361;28;20030;-76
2022/10/17 02:47:51;;;;;;;44.08;32.13;;;;;;;16.55;100.00;100785.16;5025615;28;20039;-77
2022/10/17 02:50:19;;;;;;;46.20;32.00;;;;;;;16.52;100.00;100772.97;5002012;28;20042;-77
2022/10/17 02:52:47;;;;;;;52.20;33.10;;;;;;;16.45;100.00;100782.53;5026738;28;20033;-77
2022/10/17 02:55:17;;;;;;;45.40;33.95;;;;;;;16.43;100.00;100781.88;5022218;28;20080;-78
2022/10/17 02:57:49;;;;;;;49.25;33.45;;;;;;;16.44;100.00;100780.88;5027095;28;20029;-78
2022/10/17 03:00:17;;;;;;;46.55;33.00;;;;;;;16.47;100.00;100785.91;5023688;28;20110;-77
2022/10/17 03:02:50;;;;;;;49.47;33.75;;;;;;;16.37;100.00;100785.94;5026657;28;20030;-78
2022/10/17 03:05:22;;;;;;;46.97;33.35;;;;;;;16.37;100.00;100785.94;5022976;28;20486;-78
2022/10/17 03:07:48;;;;;;;46.85;34.47;;;;;;;16.28;100.00;100791.34;5040755;28;20033;-79
2022/10/17 03:10:14;;;;;;;52.70;34.65;;;;;;;16.22;100.00;100789.28;5025900;28;20057;-78
2022/10/17 03:12:40;;;;;;;54.42;36.33;;;;;;;16.25;100.00;100797.00;5006989;28;20080;-76
2022/10/17 03:15:08;;;;;;;46.20;35.03;;;;;;;16.29;100.00;100790.38;5025792;28;20136;-77
2022/10/17 03:17:34;;;;;;;51.25;34.97;;;;;;;16.30;100.00;100794.72;5024550;28;20030;-77
2022/10/17 03:20:00;;;;;;;46.65;33.78;;;;;;;16.29;100.00;100801.03;5008617;28;20451;-76
2022/10/17 03:22:25;;;;;;;46.55;35.13;;;;;;;16.25;100.00;100810.31;5029915;28;20054;-76
2022/10/17 03:24:51;;;;;;;50.13;35.10;;;;;;;16.25;100.00;100818.31;5028846;28;20029;-76
2022/10/17 03:27:16;;;;;;;47.42;33.67;;;;;;;16.28;100.00;100818.00;5029136;28;20029;-75
2022/10/17 03:29:42;;;;;;;41.17;30.17;;;;;;;16.28;100.00;100820.66;5029205;28;20032;-76
2022/10/17 03:32:08;;;;;;;39.90;29.85;;;;;;;16.24;100.00;100816.63;5026048;28;20045;-73
2022/10/17 03:34:35;;;;;;;36.72;28.02;;;;;;;16.22;100.00;100814.09;5032322;28;20033;-74
2022/10/17 03:37:01;;;;;;;40.83;28.98;;;;;;;16.24;100.00;100816.63;5028415;28;20536;-76
2022/10/17 03:39:28;;;;;;;39.35;29.13;;;;;;;16.23;100.00;100820.25;5025067;28;20096;-77
2022/10/17 03:41:53;;;;;;;38.20;29.17;;;;;;;16.22;100.00;100813.25;5028166;28;20034;-77
2022/10/17 03:44:19;;;;;;;38.28;28.75;;;;;;;16.22;100.00;100819.41;5025744;28;20038;-77
2022/10/17 03:46:44;;;;;;;35.13;26.45;;;;;;;16.24;100.00;100827.28;5010722;28;20026;-76
2022/10/17 03:49:10;;;;;;;40.55;29.00;;;;;;;16.24;100.00;100827.28;5011338;28;20201;-76
2022/10/17 03:51:36;;;;;;;39.63;28.35;;;;;;;16.23;100.00;100830.91;5028073;28;20064;-76
2022/10/17 03:54:06;;;;;;;38.90;29.30;;;;;;;16.23;100.00;100830.91;5027607;28;20564;-76
2022/10/17 03:56:32;;;;;;;38.28;28.70;;;;;;;16.23;100.00;100831.75;5012236;28;20116;-76
2022/10/17 03:59:01;;;;;;;38.28;29.80;;;;;;;16.18;100.00;100838.50;5027342;28;20190;-76
2022/10/17 04:01:28;;;;;;;38.58;28.60;;;;;;;16.09;100.00;100836.72;5028895;28;20064;-76
2022/10/17 04:03:56;;;;;;;38.58;28.20;;;;;;;16.02;100.00;100833.84;5029737;28;20057;-77
2022/10/17 04:06:22;;;;;;;38.55;29.00;;;;;;;15.94;100.00;100842.53;5028703;28;20067;-76
2022/10/17 04:08:48;;;;;;;38.03;28.95;;;;;;;15.93;100.00;100843.53;5024078;28;20116;-75
2022/10/17 04:11:20;;;;;;;39.15;29.60;;;;;;;15.97;100.00;100852.03;5025470;28;20038;-75
2022/10/17 04:13:51;;;;;;;38.08;29.27;;;;;;;15.95;100.00;100849.56;5028786;28;20120;-76
2022/10/17 04:16:17;;;;;;;43.80;30.33;;;;;;;15.91;100.00;100850.81;5027753;28;20047;-76
2022/10/17 04:18:58;;;;;;;40.50;30.30;;;;;;;15.83;100.00;100858.69;5028222;28;20491;-76
2022/10/17 04:21:27;;;;;;;44.45;29.92;;;;;;;15.78;100.00;100863.63;5027827;28;20029;-76
2022/10/17 04:23:59;;;;;;;44.30;30.55;;;;;;;15.67;100.00;100863.75;5024989;28;20034;-76
2022/10/17 04:26:54;;;;;;;37.38;29.42;;;;;;;15.68;100.00;100868.09;5024914;28;20069;-76
2022/10/17 04:29:23;;;;;;;42.60;30.42;;;;;;;15.65;100.00;100867.56;5023385;28;20120;-77
2022/10/17 04:31:51;;;;;;;38.38;29.70;;;;;;;15.67;100.00;100871.75;5011972;28;20527;-74
2022/10/17 04:34:21;;;;;;;;;;;;;;;15.68;100.00;100875.25;5030216;28;20038;-76
2022/10/17 04:36:47;;;;;;;42.33;30.60;;;;;;;15.71;100.00;100883.81;5027921;28;20295;-77
2022/10/17 04:39:13;;;;;;;40.97;31.08;;;;;;;15.69;100.00;100879.59;5032273;28;20037;-76
2022/10/17 04:41:39;;;;;;;42.65;30.15;;;;;;;15.69;100.00;100880.44;5021922;28;20490;-76
2022/10/17 04:44:05;;;;;;;40.80;30.92;;;;;;;15.69;100.00;100885.75;5029704;28;20123;-76
2022/10/17 04:46:34;;;;;;;39.42;30.73;;;;;;;15.61;100.00;100882.97;5023772;28;20397;-76
2022/10/17 04:49:00;;;;;;;47.83;31.38;;;;;;;15.54;100.00;100882.72;5030149;28;20040;-76
2022/10/17 04:51:26;;;;;;;44.60;32.00;;;;;;;15.54;100.00;100887.19;5023683;28;20033;-77
2022/10/17 04:54:20;;;;;;;45.20;32.22;;;;;;;15.47;100.00;100883.38;5019213;28;20049;-76
2022/10/17 04:56:51;;;;;;;;;;;;;;;15.44;100.00;100886.31;5030162;28;20029;-76
2022/10/17 04:59:17;;;;;;;52.70;33.13;;;;;;;15.38;100.00;100892.19;5008723;28;19924;-75
2022/10/17 05:01:44;;;;;;;47.95;33.92;;;;;;;15.40;100.00;100891.09;5027882;28;20037;-77
2022/10/17 05:04:10;;;;;;;42.78;32.47;;;;;;;15.31;100.00;100891.94;5013905;28;20037;-76
2022/10/17 05:06:36;;;;;;;44.88;32.42;;;;;;;15.12;100.00;100895.44;5026127;28;20045;-78
2022/10/17 05:09:14;;;;;;;41.67;32.00;;;;;;;15.21;100.00;100895.56;5013511;28;20037;-79
2022/10/17 05:11:41;;;;;;;46.00;32.17;;;;;;;15.22;100.00;100889.28;5029632;28;20126;-79
2022/10/17 05:14:07;;;;;;;44.58;33.85;;;;;;;15.19;100.00;100894.88;5025107;28;20037;-78
2022/10/17 05:16:32;;;;;;;45.05;32.88;;;;;;;15.16;100.00;100893.34;5022617;28;20025;-76
2022/10/17 05:18:58;;;;;;;50.72;35.03;;;;;;;15.18;100.00;100893.19;5027053;28;20072;-78
2022/10/17 05:21:29;;;;;;;45.97;33.28;;;;;;;15.19;100.00;100897.53;5023157;28;20029;-79
2022/10/17 05:23:55;;;;;;;47.85;32.97;;;;;;;15.18;100.00;100887.88;5026483;28;20112;-78
2022/10/17 05:26:22;;;;;;;47.03;33.42;;;;;;;15.20;100.00;100896.56;5028219;28;20444;-79
2022/10/17 05:28:48;;;;;;;49.28;36.10;;;;;;;15.15;100.00;100897.81;5026544;28;20120;-82
2022/10/17 05:31:14;;;;;;;53.92;35.33;;;;;;;15.21;100.00;100900.88;5022718;28;20033;-78
2022/10/17 05:33:41;;;;;;;51.05;37.05;;;;;;;15.21;100.00;100900.88;5029081;28;20025;-78
2022/10/17 05:36:07;;;;;;;52.55;35.97;;;;;;;15.22;100.00;100891.94;5012279;28;20068;-75
2022/10/17 05:38:33;;;;;;;55.28;38.80;;;;;;;15.23;100.00;100901.59;5025882;28;20064;-78
2022/10/17 05:41:03;;;;;;;64.88;40.45;;;;;;;15.24;100.00;100895.31;5043457;28;20533;-77
2022/10/17 05:43:29;;;;;;;65.45;41.30;;;;;;;15.25;100.00;100907.63;5007294;28;20033;-76
2022/10/17 05:45:56;;;;;;;57.88;40.58;;;;;;;15.26;100.00;100911.94;5020699;28;20041;-76
2022/10/17 05:48:23;;;;;;;61.10;41.40;;;;;;;15.23;100.00;100914.88;5008855;28;20025;-80
2022/10/17 05:50:49;;;;;;;64.68;42.78;;;;;;;15.22;100.00;100918.53;5027924;28;20030;-80
2022/10/17 05:53:17;;;;;;;64.70;43.10;;;;;;;15.21;100.00;100916.84;5029081;28;20045;-79
2022/10/17 05:55:54;;;;;;;64.53;42.30;;;;;;;15.18;100.00;100914.47;5028739;28;20473;-78
2022/10/17 05:58:20;;;;;;;66.70;44.20;;;;;;;15.15;100.00;100916.41;5026631;28;20032;-78
2022/10/17 06:00:48;;;;;;;65.95;42.90;;;;;;;15.21;100.00;100916.84;5021623;28;20576;-80
2022/10/17 06:03:14;;;;;;;70.47;45.75;;;;;;;15.25;100.00;100918.25;5026243;28;20041;-79
2022/10/17 06:05:40;;;;;;;69.97;44.55;;;;;;;15.18;100.00;100917.13;5023474;28;20034;-79
2022/10/17 06:08:05;;;;;;;67.75;43.22;;;;;;;15.18;100.00;100923.28;5028704;28;20069;-78
2022/10/17 06:10:33;;;;;;;66.60;44.83;;;;;;;15.16;100.00;100925.25;5022759;28;20036;-76
2022/10/17 06:12:59;;;;;;;73.07;46.03;;;;;;;15.16;100.00;100931.41;5025473;28;20025;-77
2022/10/17 06:15:25;;;;;;;73.82;44.33;;;;;;;15.12;100.00;100930.00;5021776;28;20022;-77
2022/10/17 06:17:58;;;;;;;68.82;44.20;;;;;;;15.05;100.00;100938.66;5024587;28;20164;-77
2022/10/17 06:20:23;;;;;;;68.68;41.88;;;;;;;15.06;100.00;100935.88;5025251;28;20523;-77
2022/10/17 06:22:49;;;;;;;64.72;42.53;;;;;;;15.09;100.00;100943.56;5023140;28;20030;-76
2022/10/17 06:25:24;;;;;;;62.92;38.55;;;;;;;15.09;100.00;100946.22;5025284;28;20037;-76
2022/10/17 06:27:50;;;;;;;59.15;39.97;;;;;;;14.93;100.00;100951.22;5025289;28;20045;-76
2022/10/17 06:30:15;;;;;;;60.25;39.92;;;;;;;14.90;100.00;100948.88;5028845;28;20112;-76
2022/10/17 06:32:41;;;;;;;66.55;42.88;;;;;;;14.92;100.00;100960.19;5020359;28;20123;-77
2022/10/17 06:35:06;;;;;;;57.65;40.28;;;;;;;15.02;100.00;100958.38;5026237;28;20112;-77
2022/10/17 06:37:33;;;;;;;65.70;42.00;;;;;;;15.03;100.00;100962.72;5021252;28;20606;-77
2022/10/17 06:40:01;;;;;;;62.60;41.80;;;;;;;15.06;100.00;100962.47;5024122;28;20033;-76
2022/10/17 06:42:30;;;;;;;66.22;41.50;;;;;;;15.16;100.00;100965.97;5025141;28;20055;-76
2022/10/17 06:45:08;;;;;;;64.40;41.45;;;;;;;15.26;100.00;100970.44;5024678;28;20061;-76
2022/10/17 06:47:43;;;;;;;63.00;42.53;;;;;;;15.29;100.00;100967.53;5024672;28;20040;-76
2022/10/17 06:50:38;;;;;;;61.90;39.65;;;;;;;15.39;100.00;100971.84;5019325;28;20064;-79
2022/10/17 06:53:10;;;;;;;64.20;41.22;;;;;;;15.47;100.00;100979.16;5026026;28;20037;-76
2022/10/17 06:55:52;;;;;;;61.80;41.33;;;;;;;15.39;100.00;100979.00;5024545;28;20033;-75
2022/10/17 06:58:56;;;;;;;65.40;41.53;;;;;;;15.48;100.00;100981.69;4945975;28;20242;-78
2022/10/17 07:01:25;;;;;;;64.32;42.80;;;;;;;15.51;100.00;100983.19;4945062;29;20039;-78
2022/10/17 07:03:54;;;;;;;67.97;40.83;;;;;;;15.53;100.00;100986.59;4929130;29;20135;-78
2022/10/17 07:06:23;;;;;;;61.05;41.58;;;;;;;15.58;100.00;100984.38;4945870;29;20563;-77
2022/10/17 07:08:49;;;;;;;67.68;42.75;;;;;;;15.62;100.00;101000.88;4932160;29;20035;-77
2022/10/17 07:11:21;;;;;;;64.72;42.95;;;;;;;15.49;100.00;101001.16;4948102;28;20111;-78
2022/10/17 07:13:49;;;;;;;62.33;42.25;;;;;;;15.44;100.00;100992.72;4928644;29;20183;-76
2022/10/17 07:16:15;;;;;;;63.50;43.08;;;;;;;15.54;100.00;100996.28;4947969;29;20508;-79
2022/10/17 07:18:43;;;;;;;62.05;42.67;;;;;;;15.65;100.00;100996.13;4947105;29;20046;-79
2022/10/17 07:21:08;;;;;;;63.08;42.10;;;;;;;15.69;100.00;101002.84;4948971;28;20043;-78
2022/10/17 07:23:36;;;;;;;61.00;41.15;;;;;;;15.79;100.00;101003.66;4948585;29;20058;-77
2022/10/17 07:26:09;;;;;;;60.38;40.40;;;;;;;15.78;100.00;101007.34;4947431;29;20047;-78
2022/10/17 07:28:38;;;;;;;64.90;40.63;;;;;;;15.77;100.00;101010.97;4950364;28;20031;-78
2022/10/17 07:31:15;;;;;;;61.88;41.80;;;;;;;15.69;100.00;101013.50;5043771;28;20048;-77
2022/10/17 07:33:42;;;;;;;60.83;41.20;;;;;;;15.75;100.00;101018.25;5025544;28;20040;-77
2022/10/17 07:36:08;;;;;;;58.83;40.08;;;;;;;15.86;100.00;101020.75;5022180;28;20033;-78
2022/10/17 07:38:35;;;;;;;59.15;41.05;;;;;;;15.96;100.00;101020.78;5007014;28;20046;-78
2022/10/17 07:41:02;;;;;;;58.90;39.47;;;;;;;16.10;100.00;101022.97;5026565;28;20030;-78
2022/10/17 07:43:29;;;;;;;58.00;39.22;;;;;;;16.20;100.00;101028.31;5020547;28;20080;-78
2022/10/17 07:45:54;;;;;;;57.15;38.13;;;;;;;16.17;100.00;101031.25;5029640;28;20124;-78
2022/10/17 07:48:22;;;;;;;56.30;39.13;;;;;;;16.30;100.00;101024.63;5023500;28;20129;-78
2022/10/17 07:50:48;;;;;;;56.63;38.60;;;;;;;16.34;100.00;101033.16;5024531;28;20033;-78
2022/10/17 07:53:14;;;;;;;57.10;37.75;;;;;;;16.38;100.00;101031.88;5024209;28;20038;-78
2022/10/17 07:55:40;;;;;;;54.67;37.08;;;;;;;16.52;100.00;101043.91;5024467;28;20037;-77
2022/10/17 07:58:07;;;;;;;57.75;38.80;;;;;;;16.62;100.00;101040.25;5025165;28;20083;-77
2022/10/17 08:00:34;;;;;;;50.03;36.17;;;;;;;16.62;100.00;101050.91;5025468;28;20034;-77
2022/10/17 08:02:59;;;;;;;57.17;38.17;;;;;;;16.72;100.00;101051.75;5026198;28;20184;-77
2022/10/17 08:05:25;;;;;;;56.05;36.65;;;;;;;16.83;100.00;101052.53;5024769;28;20128;-77
2022/10/17 08:07:50;;;;;;;51.35;35.40;;;;;;;16.86;100.00;101052.22;5029099;28;20086;-76
2022/10/17 08:10:16;;;;;;;51.42;35.33;;;;;;;16.88;100.00;101060.94;5030178;28;20393;-77
2022/10/17 08:12:42;;;;;;;51.17;35.80;;;;;;;16.89;100.00;101052.81;5028353;28;20034;-76
2022/10/17 08:15:08;;;;;;;47.78;36.10;;;;;;;16.99;100.00;101063.41;5029999;28;20029;-77
2022/10/17 08:17:35;;;;;;;53.95;34.20;;;;;;;17.04;100.00;101061.97;5028766;28;20504;-77
2022/10/17 08:20:02;;;;;;;51.38;34.65;;;;;;;17.07;100.00;101058.19;5029751;28;20418;-77
2022/10/17 08:22:27;;;;;;;52.08;35.67;;;;;;;17.05;100.00;101068.16;5025637;28;20120;-76
2022/10/17 08:24:53;;;;;;;47.17;35.20;;;;;;;17.08;100.00;101066.03;5028789;28;20513;-76
2022/10/17 08:27:22;;;;;;;54.72;36.50;;;;;;;17.07;100.00;101071.53;5028525;28;20447;-78
2022/10/17 08:29:51;;;;;;;51.58;34.95;;;;;;;17.08;100.00;101070.53;5028300;28;20033;-78
2022/10/17 08:32:17;;;;;;;46.97;35.08;;;;;;;17.17;100.00;101066.97;5028347;28;20048;-78
2022/10/17 08:34:43;;;;;;;45.88;33.53;;;;;;;17.29;100.00;101059.59;5027778;28;20040;-77
2022/10/17 08:37:08;;;;;;;44.67;33.03;;;;;;;17.43;100.00;101069.78;5028541;28;20341;-78
2022/10/17 08:39:34;;;;;;;46.85;33.80;;;;;;;17.51;100.00;101064.50;5028158;28;20128;-78
2022/10/17 08:42:25;;;;;;;46.97;33.90;;;;;;;17.43;100.00;101059.94;5022534;28;20069;-78
2022/10/17 08:45:05;;;;;;;46.03;33.45;;;;;;;17.56;100.00;101055.06;5027979;28;20042;-78
2022/10/17 08:47:38;;;;;;;47.92;34.15;;;;;;;17.73;100.00;101072.09;5027425;28;20045;-78
2022/10/17 08:50:27;;;;;;;49.00;32.47;;;;;;;17.86;100.00;101064.56;5025771;28;20034;-77
2022/10/17 08:53:01;;;;;;;48.80;33.47;;;;;;;17.92;100.00;101063.09;5028271;28;20474;-78
2022/10/17 08:55:36;;;;;;;46.67;33.22;;;;;;;17.92;100.00;101058.59;5025464;28;20041;-78
2022/10/17 08:58:01;;;;;;;43.88;32.38;;;;;;;18.06;100.00;101062.56;5028692;28;20035;-78
2022/10/17 09:00:29;;;;;;;46.22;31.80;;;;;;;18.15;100.00;101063.47;5024623;28;20371;-78
2022/10/17 09:03:15;;;;;;;45.83;33.47;;;;;;;18.15;100.00;101069.66;5027821;28;20053;-78
2022/10/17 09:06:15;;;;;;;48.08;32.30;;;;;;;18.13;100.00;101066.31;5029661;28;20057;-78
2022/10/17 09:09:01;;;;;;;48.10;33.28;;;;;;;18.18;100.00;101068.50;5028332;28;20022;-78
2022/10/17 09:11:49;;;;;;;46.88;31.95;;;;;;;18.22;100.00;101070.72;5023740;28;20605;-78
2022/10/17 09:14:39;;;;;;;47.22;32.35;;;;;;;18.21;100.00;101063.69;5027832;28;20037;-78
2022/10/17 09:17:25;;;;;;;47.63;33.90;;;;;;;18.15;100.00;101069.66;5027622;28;20034;-78
2022/10/17 09:20:11;;;;;;;49.42;35.15;;;;;;;18.23;100.00;101064.38;4993296;28;20049;-78
2022/10/17 09:22:43;;;;;;;51.65;34.78;;;;;;;18.33;100.00;101066.94;5029582;28;20022;-78
2022/10/17 09:25:14;;;;;;;54.95;38.10;;;;;;;18.44;100.00;101068.53;5026655;28;20383;-78
2022/10/17 09:27:51;;;;;;;54.03;34.60;;;;;;;18.52;100.00;101065.91;5026344;28;20061;-78
2022/10/17 09:30:22;;;;;;;59.60;38.17;;;;;;;18.59;100.00;101067.00;5027934;28;20094;-77
2022/10/17 09:32:53;;;;;;;54.70;38.58;;;;;;;18.66;100.00;101070.72;5024965;28;20030;-78
2022/10/17 09:35:21;;;;;;;53.83;37.85;;;;;;;18.66;100.00;101062.69;5026451;28;20029;-78
2022/10/17 09:37:48;;;;;;;56.90;37.50;;;;;;;18.67;100.00;101072.41;5030428;28;20041;-81
2022/10/17 09:40:34;;;;;;;55.70;36.67;;;;;;;18.69;100.00;101062.38;5026646;28;20052;-80
2022/10/17 09:43:05;;;;;;;50.30;35.28;;;;;;;18.78;100.00;101074.81;5030476;28;20029;-80
2022/10/17 09:45:37;;;;;;;53.67;37.25;;;;;;;18.89;100.00;101062.97;5030260;28;20031;-76
2022/10/17 09:48:17;;;;;;;51.25;33.70;;;;;;;18.98;100.00;101073.53;5025442;28;20045;-77
2022/10/17 09:50:44;;;;;;;52.17;34.20;;;;;;;19.08;100.00;101068.94;5040754;28;20053;-80
2022/10/17 09:53:17;;;;;;;50.40;34.40;;;;;;;19.20;100.00;101070.28;5027042;28;20041;-77
2022/10/17 09:55:50;;;;;;;56.38;36.80;;;;;;;19.25;100.00;101074.34;5030921;28;20025;-78
2022/10/17 09:58:15;;;;;;;53.80;34.97;;;;;;;19.30;100.00;101066.66;5027285;28;20030;-76
2022/10/17 10:00:43;;;;;;;53.03;35.20;;;;;;;19.34;100.00;101073.34;5030480;28;20496;-78
2022/10/17 10:03:10;;;;;;;49.75;34.55;;;;;;;19.37;100.00;101068.53;5030164;28;20041;-78
2022/10/17 10:05:35;;;;;;;51.90;34.17;;;;;;;19.48;100.00;101075.44;5029946;28;20034;-77
2022/10/17 10:08:12;;;;;;;53.70;35.88;;;;;;;19.49;100.00;101071.75;5030051;28;20366;-77
2022/10/17 10:10:41;;;;;;;51.33;34.28;;;;;;;19.50;100.00;101068.06;5028751;28;20580;-77
2022/10/17 10:13:13;;;;;;;50.47;34.25;;;;;;;19.56;100.00;101073.59;5029868;28;20033;-78
2022/10/17 10:15:46;;;;;;;45.70;33.35;;;;;;;19.64;100.00;101064.75;5030930;28;20505;-78
2022/10/17 10:18:24;;;;;;;54.55;35.75;;;;;;;19.72;100.00;101061.25;5018138;28;20094;-81
2022/10/17 10:21:01;;;;;;;56.60;35.88;;;;;;;19.74;100.00;101060.06;5027055;28;20040;-82
2022/10/17 10:23:27;;;;;;;53.92;38.00;;;;;;;19.77;100.00;101065.13;5028916;28;20040;-78
2022/10/17 10:26:00;;;;;;;59.33;36.88;;;;;;;19.81;100.00;101055.75;5026365;28;20112;-81
2022/10/17 10:28:32;;;;;;;54.38;37.90;;;;;;;19.84;100.00;101055.41;5023761;28;20038;-81
2022/10/17 10:31:06;;;;;;;54.13;38.00;;;;;;;19.88;100.00;101051.41;5022336;28;20612;-81
2022/10/17 10:33:36;;;;;;;56.28;38.50;;;;;;;19.95;100.00;101051.56;5027857;28;20507;-81
2022/10/17 10:36:06;;;;;;;53.45;35.17;;;;;;;20.02;100.00;101057.94;5028839;28;20576;-81
2022/10/17 10:38:32;;;;;;;;;;;;;;;20.06;100.00;101048.56;5024831;28;20069;-81
2022/10/17 10:41:06;;;;;;;56.90;37.80;;;;;;;20.13;100.00;101056.75;5028454;28;20015;-81
2022/10/17 10:43:35;;;;;;;61.97;39.28;;;;;;;20.17;100.00;101053.56;5025566;28;20117;-80
2022/10/17 10:46:14;;;;;;;61.50;41.30;;;;;;;20.23;100.00;101054.75;5027798;28;20099;-81
2022/10/17 10:48:59;;;;;;;60.25;39.95;;;;;;;20.27;100.00;101056.06;5025262;28;20033;-82
2022/10/17 10:51:31;;;;;;;64.05;41.22;;;;;;;20.35;100.00;101056.09;5023684;28;20386;-81
2022/10/17 10:53:56;;;;;;;59.17;40.67;;;;;;;20.40;100.00;101059.09;5025778;28;20458;-82
2022/10/17 10:56:28;;;;;;;64.05;41.70;;;;;;;20.46;100.00;101061.09;5030164;28;20109;-82
2022/10/17 10:59:19;;;;;;;67.63;42.20;;;;;;;20.55;100.00;101054.75;5023887;28;20033;-80
2022/10/17 11:02:09;;;;;;;62.67;41.03;;;;;;;20.66;100.00;101057.06;5025381;28;20057;-81
2022/10/17 11:04:54;;;;;;;68.68;41.60;;;;;;;20.70;100.00;101047.66;5026232;28;20025;-81
2022/10/17 11:07:57;;;;;;;64.25;41.85;;;;;;;20.79;100.00;101054.63;5023081;28;20042;-82
2022/10/17 11:10:45;;;;;;;61.13;40.90;;;;;;;20.87;100.00;101051.09;5024907;28;20474;-82
2022/10/17 11:13:29;;;;;;;64.30;42.78;;;;;;;20.94;100.00;101049.41;5027439;28;20041;-81
2022/10/17 11:16:25;;;;;;;61.75;40.30;;;;;;;21.07;100.00;101048.84;5026545;28;20388;-80
2022/10/17 11:18:56;;;;;;;64.30;42.25;;;;;;;21.16;100.00;101047.81;5026252;28;20071;-81
2022/10/17 11:21:42;;;;;;;68.75;43.20;;;;;;;21.15;100.00;101046.16;5025703;28;20477;-82